sensor_id;sensor_type;location;lat;lon;timestamp;pressure;altitude;pressure_sealevel;temperature;humidity
52839;BME280;39219;53.678;9.856;2023-05-11T00:01:10;76593.59;;;-147.77;96.01
52839;BME280;39219;53.678;9.856;2023-05-11T00:03:37;76595.63;;;-147.77;96.30
52839;BME280;39219;53.678;9.856;2023-05-11T00:06:03;76599.69;;;-147.77;95.91
52839;BME280;39219;53.678;9.856;2023-05-11T00:08:30;76609.78;;;-147.77;96.14
52839;BME280;39219;53.678;9.856;2023-05-11T00:10:56;76609.78;;;-147.77;96.12
52839;BME280;39219;53.678;9.856;2023-05-11T00:13:26;76611.81;;;-147.77;96.14
52839;BME280;39219;53.678;9.856;2023-05-11T00:15:52;76613.84;;;-147.77;96.12
52839;BME280;39219;53.678;9.856;2023-05-11T00:18:19;76617.88;;;-147.77;96.24
52839;BME280;39219;53.678;9.856;2023-05-11T00:20:46;76615.84;;;-147.77;96.42
52839;BME280;39219;53.678;9.856;2023-05-11T00:23:12;76615.84;;;-147.77;96.40
52839;BME280;39219;53.678;9.856;2023-05-11T00:25:39;76617.88;;;-147.77;96.53
52839;BME280;39219;53.678;9.856;2023-05-11T00:28:05;76609.78;;;-147.77;96.69
52839;BME280;39219;53.678;9.856;2023-05-11T00:30:33;76613.84;;;-147.77;96.38
52839;BME280;39219;53.678;9.856;2023-05-11T00:33:00;76630.00;;;-147.77;95.69
52839;BME280;39219;53.678;9.856;2023-05-11T00:35:26;76625.97;;;-147.77;95.86
52839;BME280;39219;53.678;9.856;2023-05-11T00:37:53;76634.06;;;-147.77;96.36
52839;BME280;39219;53.678;9.856;2023-05-11T00:40:19;76630.00;;;-147.77;96.40
52839;BME280;39219;53.678;9.856;2023-05-11T00:42:46;76634.06;;;-147.77;96.60
52839;BME280;39219;53.678;9.856;2023-05-11T00:45:12;76630.00;;;-147.77;96.80
52839;BME280;39219;53.678;9.856;2023-05-11T00:47:40;76632.03;;;-147.77;96.62
52839;BME280;39219;53.678;9.856;2023-05-11T00:50:07;76628.00;;;-147.77;96.83
52839;BME280;39219;53.678;9.856;2023-05-11T00:52:34;76619.91;;;-147.77;96.47
52839;BME280;39219;53.678;9.856;2023-05-11T00:55:01;76625.97;;;-147.77;95.83
52839;BME280;39219;53.678;9.856;2023-05-11T00:57:27;76628.00;;;-147.77;95.84
52839;BME280;39219;53.678;9.856;2023-05-11T00:59:56;76628.00;;;-147.77;96.37
52839;BME280;39219;53.678;9.856;2023-05-11T01:02:22;76630.00;;;-147.77;96.14
52839;BME280;39219;53.678;9.856;2023-05-11T01:04:50;76642.16;;;-147.77;96.08
52839;BME280;39219;53.678;9.856;2023-05-11T01:07:20;76644.19;;;-147.77;96.32
52839;BME280;39219;53.678;9.856;2023-05-11T01:09:56;76644.19;;;-147.77;96.68
52839;BME280;39219;53.678;9.856;2023-05-11T01:12:29;76644.19;;;-147.77;96.99
52839;BME280;39219;53.678;9.856;2023-05-11T01:15:01;76648.22;;;-147.77;96.46
52839;BME280;39219;53.678;9.856;2023-05-11T01:17:37;76652.28;;;-147.77;96.46
52839;BME280;39219;53.678;9.856;2023-05-11T01:20:11;76650.25;;;-147.77;96.80
52839;BME280;39219;53.678;9.856;2023-05-11T01:22:50;76646.19;;;-147.77;96.42
52839;BME280;39219;53.678;9.856;2023-05-11T01:25:31;76644.19;;;-147.77;96.52
52839;BME280;39219;53.678;9.856;2023-05-11T01:28:19;76646.19;;;-147.77;96.20
52839;BME280;39219;53.678;9.856;2023-05-11T01:30:50;76648.22;;;-147.77;96.32
52839;BME280;39219;53.678;9.856;2023-05-11T01:33:21;76654.28;;;-147.77;96.12
52839;BME280;39219;53.678;9.856;2023-05-11T01:35:52;76654.28;;;-147.77;96.47
52839;BME280;39219;53.678;9.856;2023-05-11T01:38:23;76650.25;;;-147.77;96.72
52839;BME280;39219;53.678;9.856;2023-05-11T01:40:55;76654.28;;;-147.77;96.55
52839;BME280;39219;53.678;9.856;2023-05-11T01:43:24;76656.31;;;-147.77;96.00
52839;BME280;39219;53.678;9.856;2023-05-11T01:45:56;76656.31;;;-147.77;96.44
52839;BME280;39219;53.678;9.856;2023-05-11T01:48:25;76666.44;;;-147.77;96.30
52839;BME280;39219;53.678;9.856;2023-05-11T01:50:55;76670.47;;;-147.77;96.54
52839;BME280;39219;53.678;9.856;2023-05-11T01:53:26;76672.50;;;-147.77;96.02
52839;BME280;39219;53.678;9.856;2023-05-11T01:55:54;76672.50;;;-147.77;96.91
52839;BME280;39219;53.678;9.856;2023-05-11T01:58:23;76670.47;;;-147.77;96.88
52839;BME280;39219;53.678;9.856;2023-05-11T02:00:52;76664.41;;;-147.77;96.79
52839;BME280;39219;53.678;9.856;2023-05-11T02:03:20;76670.47;;;-147.77;96.62
52839;BME280;39219;53.678;9.856;2023-05-11T02:05:48;76680.59;;;-147.77;96.07
52839;BME280;39219;53.678;9.856;2023-05-11T02:08:16;76686.66;;;-147.77;96.33
52839;BME280;39219;53.678;9.856;2023-05-11T02:10:44;76686.66;;;-147.77;96.71
52839;BME280;39219;53.678;9.856;2023-05-11T02:13:12;76700.81;;;-147.77;96.17
52839;BME280;39219;53.678;9.856;2023-05-11T02:15:41;76698.81;;;-147.77;96.70
52839;BME280;39219;53.678;9.856;2023-05-11T02:18:12;76704.88;;;-147.77;97.12
52839;BME280;39219;53.678;9.856;2023-05-11T02:20:41;76706.88;;;-147.77;97.27
52839;BME280;39219;53.678;9.856;2023-05-11T02:23:08;76700.81;;;-147.77;97.49
52839;BME280;39219;53.678;9.856;2023-05-11T02:25:35;76710.94;;;-147.77;97.06
52839;BME280;39219;53.678;9.856;2023-05-11T02:28:03;76700.81;;;-147.77;97.80
52839;BME280;39219;53.678;9.856;2023-05-11T02:30:30;76696.78;;;-147.77;97.79
52839;BME280;39219;53.678;9.856;2023-05-11T02:33:02;76698.81;;;-147.77;97.38
52839;BME280;39219;53.678;9.856;2023-05-11T02:35:36;76704.88;;;-147.77;97.55
52839;BME280;39219;53.678;9.856;2023-05-11T02:38:03;76700.81;;;-147.77;97.71
52839;BME280;39219;53.678;9.856;2023-05-11T02:40:33;76702.84;;;-147.77;97.77
52839;BME280;39219;53.678;9.856;2023-05-11T02:43:07;76698.81;;;-147.77;97.83
52839;BME280;39219;53.678;9.856;2023-05-11T02:45:36;76692.72;;;-147.77;98.15
52839;BME280;39219;53.678;9.856;2023-05-11T02:48:06;76696.78;;;-147.77;98.07
52839;BME280;39219;53.678;9.856;2023-05-11T02:50:38;76714.97;;;-147.77;97.81
52839;BME280;39219;53.678;9.856;2023-05-11T02:53:09;76704.88;;;-147.77;98.28
52839;BME280;39219;53.678;9.856;2023-05-11T02:55:37;76714.97;;;-147.77;98.15
52839;BME280;39219;53.678;9.856;2023-05-11T02:58:04;76708.91;;;-147.77;98.41
52839;BME280;39219;53.678;9.856;2023-05-11T03:00:30;76719.03;;;-147.77;98.35
52839;BME280;39219;53.678;9.856;2023-05-11T03:02:57;76727.13;;;-147.77;98.29
52839;BME280;39219;53.678;9.856;2023-05-11T03:05:25;76735.22;;;-147.77;98.56
52839;BME280;39219;53.678;9.856;2023-05-11T03:07:56;76739.25;;;-147.77;98.72
52839;BME280;39219;53.678;9.856;2023-05-11T03:10:24;76735.22;;;-147.77;99.21
52839;BME280;39219;53.678;9.856;2023-05-11T03:12:51;76725.09;;;-147.77;99.31
52839;BME280;39219;53.678;9.856;2023-05-11T03:15:19;76727.13;;;-147.77;98.86
52839;BME280;39219;53.678;9.856;2023-05-11T03:17:47;76727.13;;;-147.77;98.93
52839;BME280;39219;53.678;9.856;2023-05-11T03:20:16;76717.00;;;-147.77;98.44
52839;BME280;39219;53.678;9.856;2023-05-11T03:22:44;76719.03;;;-147.77;98.45
52839;BME280;39219;53.678;9.856;2023-05-11T03:25:14;76714.97;;;-147.77;98.63
52839;BME280;39219;53.678;9.856;2023-05-11T03:27:42;76721.06;;;-147.77;98.46
52839;BME280;39219;53.678;9.856;2023-05-11T03:30:10;76723.06;;;-147.77;98.44
52839;BME280;39219;53.678;9.856;2023-05-11T03:32:39;76725.09;;;-147.77;98.93
52839;BME280;39219;53.678;9.856;2023-05-11T03:35:07;76729.16;;;-147.77;98.84
52839;BME280;39219;53.678;9.856;2023-05-11T03:37:35;76731.16;;;-147.77;99.09
52839;BME280;39219;53.678;9.856;2023-05-11T03:40:03;76723.06;;;-147.77;99.31
52839;BME280;39219;53.678;9.856;2023-05-11T03:42:32;76725.09;;;-147.77;99.07
52839;BME280;39219;53.678;9.856;2023-05-11T03:45:00;76729.16;;;-147.77;99.30
52839;BME280;39219;53.678;9.856;2023-05-11T03:47:28;76717.00;;;-147.77;99.29
52839;BME280;39219;53.678;9.856;2023-05-11T03:49:58;76714.97;;;-147.77;99.29
52839;BME280;39219;53.678;9.856;2023-05-11T03:52:25;76710.94;;;-147.77;99.19
52839;BME280;39219;53.678;9.856;2023-05-11T03:54:51;76717.00;;;-147.77;99.14
52839;BME280;39219;53.678;9.856;2023-05-11T03:57:18;76714.97;;;-147.77;99.56
52839;BME280;39219;53.678;9.856;2023-05-11T03:59:46;76710.94;;;-147.77;99.54
52839;BME280;39219;53.678;9.856;2023-05-11T04:02:13;76714.97;;;-147.77;99.48
52839;BME280;39219;53.678;9.856;2023-05-11T04:04:39;76721.06;;;-147.77;99.54
52839;BME280;39219;53.678;9.856;2023-05-11T04:07:06;76721.06;;;-147.77;98.99
52839;BME280;39219;53.678;9.856;2023-05-11T04:09:32;76725.09;;;-147.77;99.25
52839;BME280;39219;53.678;9.856;2023-05-11T04:11:59;76727.13;;;-147.77;99.29
52839;BME280;39219;53.678;9.856;2023-05-11T04:14:25;76721.06;;;-147.77;99.51
52839;BME280;39219;53.678;9.856;2023-05-11T04:16:53;76723.06;;;-147.77;99.53
52839;BME280;39219;53.678;9.856;2023-05-11T04:19:19;76708.91;;;-147.77;99.45
52839;BME280;39219;53.678;9.856;2023-05-11T04:21:46;76708.91;;;-147.77;99.31
52839;BME280;39219;53.678;9.856;2023-05-11T04:24:12;76710.94;;;-147.77;99.66
52839;BME280;39219;53.678;9.856;2023-05-11T04:26:39;76702.84;;;-147.77;99.35
52839;BME280;39219;53.678;9.856;2023-05-11T04:29:05;76702.84;;;-147.77;99.23
52839;BME280;39219;53.678;9.856;2023-05-11T04:31:32;76696.78;;;-147.77;98.96
52839;BME280;39219;53.678;9.856;2023-05-11T04:34:00;76700.81;;;-147.77;99.12
52839;BME280;39219;53.678;9.856;2023-05-11T04:36:26;76690.72;;;-147.77;99.65
52839;BME280;39219;53.678;9.856;2023-05-11T04:38:53;76678.56;;;-147.77;99.70
52839;BME280;39219;53.678;9.856;2023-05-11T04:41:19;76694.75;;;-147.77;99.07
52839;BME280;39219;53.678;9.856;2023-05-11T04:43:46;76684.63;;;-147.77;99.14
52839;BME280;39219;53.678;9.856;2023-05-11T04:46:13;76690.72;;;-147.77;99.02
52839;BME280;39219;53.678;9.856;2023-05-11T04:48:39;76670.47;;;-147.77;98.56
52839;BME280;39219;53.678;9.856;2023-05-11T04:51:07;76676.53;;;-147.77;97.96
52839;BME280;39219;53.678;9.856;2023-05-11T04:53:34;76674.53;;;-147.77;97.66
52839;BME280;39219;53.678;9.856;2023-05-11T04:56:00;76670.47;;;-147.77;97.77
52839;BME280;39219;53.678;9.856;2023-05-11T04:58:27;76662.38;;;-147.77;98.24
52839;BME280;39219;53.678;9.856;2023-05-11T05:00:53;76644.19;;;-147.77;97.46
52839;BME280;39219;53.678;9.856;2023-05-11T05:03:19;76634.06;;;-147.77;96.78
52839;BME280;39219;53.678;9.856;2023-05-11T05:05:46;76613.84;;;-147.77;96.78
52839;BME280;39219;53.678;9.856;2023-05-11T05:08:14;76613.84;;;-147.77;96.31
52839;BME280;39219;53.678;9.856;2023-05-11T05:10:41;76617.88;;;-147.77;95.83
52839;BME280;39219;53.678;9.856;2023-05-11T05:13:08;76609.78;;;-147.77;95.49
52839;BME280;39219;53.678;9.856;2023-05-11T05:15:34;76603.72;;;-147.77;94.87
52839;BME280;39219;53.678;9.856;2023-05-11T05:18:01;76611.81;;;-147.77;94.98
52839;BME280;39219;53.678;9.856;2023-05-11T05:20:27;76609.78;;;-147.77;94.83
52839;BME280;39219;53.678;9.856;2023-05-11T05:22:54;76621.94;;;-147.77;93.43
52839;BME280;39219;53.678;9.856;2023-05-11T05:25:22;76609.78;;;-147.77;94.38
52839;BME280;39219;53.678;9.856;2023-05-11T05:27:48;76609.78;;;-147.77;94.16
52839;BME280;39219;53.678;9.856;2023-05-11T05:30:14;76599.69;;;-147.77;93.88
52839;BME280;39219;53.678;9.856;2023-05-11T05:32:41;76601.69;;;-147.77;93.27
52839;BME280;39219;53.678;9.856;2023-05-11T05:35:08;76597.66;;;-147.77;93.17
52839;BME280;39219;53.678;9.856;2023-05-11T05:37:34;76593.59;;;-147.77;92.76
52839;BME280;39219;53.678;9.856;2023-05-11T05:40:02;76583.50;;;-147.77;93.05
52839;BME280;39219;53.678;9.856;2023-05-11T05:42:30;76581.47;;;-147.77;93.66
52839;BME280;39219;53.678;9.856;2023-05-11T05:44:56;76579.44;;;-147.77;92.18
52839;BME280;39219;53.678;9.856;2023-05-11T05:47:23;76591.59;;;-147.77;92.02
52839;BME280;39219;53.678;9.856;2023-05-11T05:49:49;76599.69;;;-147.77;92.66
52839;BME280;39219;53.678;9.856;2023-05-11T05:52:16;76585.50;;;-147.77;92.97
52839;BME280;39219;53.678;9.856;2023-05-11T05:54:43;76571.34;;;-147.77;92.83
52839;BME280;39219;53.678;9.856;2023-05-11T05:57:09;76571.34;;;-147.77;91.98
52839;BME280;39219;53.678;9.856;2023-05-11T05:59:37;76585.50;;;-147.77;91.72
52839;BME280;39219;53.678;9.856;2023-05-11T06:02:04;76579.44;;;-147.77;91.46
52839;BME280;39219;53.678;9.856;2023-05-11T06:04:31;76583.50;;;-147.77;91.01
52839;BME280;39219;53.678;9.856;2023-05-11T06:06:57;76579.44;;;-147.77;90.08
52839;BME280;39219;53.678;9.856;2023-05-11T06:09:25;76585.50;;;-147.77;89.20
52839;BME280;39219;53.678;9.856;2023-05-11T06:11:51;76583.50;;;-147.77;90.23
52839;BME280;39219;53.678;9.856;2023-05-11T06:14:18;76575.41;;;-147.77;90.24
52839;BME280;39219;53.678;9.856;2023-05-11T06:16:47;76569.34;;;-147.77;90.13
52839;BME280;39219;53.678;9.856;2023-05-11T06:19:14;76569.34;;;-147.77;89.48
52839;BME280;39219;53.678;9.856;2023-05-11T06:21:41;76567.31;;;-147.77;88.69
52839;BME280;39219;53.678;9.856;2023-05-11T06:24:09;76597.66;;;-147.77;88.64
52839;BME280;39219;53.678;9.856;2023-05-11T06:26:35;76593.59;;;-147.77;89.41
52839;BME280;39219;53.678;9.856;2023-05-11T06:29:02;76591.59;;;-147.77;90.16
52839;BME280;39219;53.678;9.856;2023-05-11T06:31:28;76583.50;;;-147.77;89.09
52839;BME280;39219;53.678;9.856;2023-05-11T06:33:56;76571.34;;;-147.77;90.02
52839;BME280;39219;53.678;9.856;2023-05-11T06:36:23;76553.16;;;-147.77;89.17
52839;BME280;39219;53.678;9.856;2023-05-11T06:38:49;76561.25;;;-147.77;87.87
52839;BME280;39219;53.678;9.856;2023-05-11T06:41:16;76569.34;;;-147.77;88.25
52839;BME280;39219;53.678;9.856;2023-05-11T06:43:42;76565.28;;;-147.77;89.06
52839;BME280;39219;53.678;9.856;2023-05-11T06:46:09;76565.28;;;-147.77;89.26
52839;BME280;39219;53.678;9.856;2023-05-11T06:48:40;76559.22;;;-147.77;89.44
52839;BME280;39219;53.678;9.856;2023-05-11T06:51:10;76549.09;;;-147.77;89.73
52839;BME280;39219;53.678;9.856;2023-05-11T06:53:36;76536.97;;;-147.77;88.94
52839;BME280;39219;53.678;9.856;2023-05-11T06:56:03;76539.00;;;-147.77;88.57
52839;BME280;39219;53.678;9.856;2023-05-11T06:58:30;76528.88;;;-147.77;87.38
52839;BME280;39219;53.678;9.856;2023-05-11T07:00:56;76528.88;;;-147.77;88.22
52839;BME280;39219;53.678;9.856;2023-05-11T07:03:22;76516.72;;;-147.77;88.29
52839;BME280;39219;53.678;9.856;2023-05-11T07:05:49;76514.72;;;-147.77;87.36
52839;BME280;39219;53.678;9.856;2023-05-11T07:08:17;76518.75;;;-147.77;86.80
52839;BME280;39219;53.678;9.856;2023-05-11T07:10:43;76536.97;;;-147.77;87.22
52839;BME280;39219;53.678;9.856;2023-05-11T07:13:10;76532.91;;;-147.77;87.25
52839;BME280;39219;53.678;9.856;2023-05-11T07:15:36;76522.81;;;-147.77;86.78
52839;BME280;39219;53.678;9.856;2023-05-11T07:18:03;76512.69;;;-147.77;87.36
52839;BME280;39219;53.678;9.856;2023-05-11T07:20:30;76492.47;;;-147.77;87.41
52839;BME280;39219;53.678;9.856;2023-05-11T07:22:56;76472.22;;;-147.77;87.36
52839;BME280;39219;53.678;9.856;2023-05-11T07:25:25;76452.00;;;-147.77;86.02
52839;BME280;39219;53.678;9.856;2023-05-11T07:27:51;76464.13;;;-147.77;85.92
52839;BME280;39219;53.678;9.856;2023-05-11T07:30:18;76470.22;;;-147.77;85.19
52839;BME280;39219;53.678;9.856;2023-05-11T07:32:44;76472.22;;;-147.77;86.15
52839;BME280;39219;53.678;9.856;2023-05-11T07:35:11;76460.09;;;-147.77;85.52
52839;BME280;39219;53.678;9.856;2023-05-11T07:37:37;76460.09;;;-147.77;85.13
52839;BME280;39219;53.678;9.856;2023-05-11T07:40:05;76460.09;;;-147.77;85.96
52839;BME280;39219;53.678;9.856;2023-05-11T07:42:33;76449.97;;;-147.77;86.40
52839;BME280;39219;53.678;9.856;2023-05-11T07:44:59;76445.94;;;-147.77;85.99
52839;BME280;39219;53.678;9.856;2023-05-11T07:47:26;76466.16;;;-147.77;85.84
52839;BME280;39219;53.678;9.856;2023-05-11T07:49:52;76476.28;;;-147.77;86.50
52839;BME280;39219;53.678;9.856;2023-05-11T07:52:19;76476.28;;;-147.77;86.64
52839;BME280;39219;53.678;9.856;2023-05-11T07:54:45;76480.31;;;-147.77;85.53
52839;BME280;39219;53.678;9.856;2023-05-11T07:57:12;76476.28;;;-147.77;86.97
52839;BME280;39219;53.678;9.856;2023-05-11T07:59:40;76474.25;;;-147.77;86.78
52839;BME280;39219;53.678;9.856;2023-05-11T08:02:07;76484.38;;;-147.77;86.24
52839;BME280;39219;53.678;9.856;2023-05-11T08:04:34;76456.06;;;-147.77;86.66
52839;BME280;39219;53.678;9.856;2023-05-11T08:07:00;76454.03;;;-147.77;85.91
52839;BME280;39219;53.678;9.856;2023-05-11T08:09:27;76443.91;;;-147.77;86.54
52839;BME280;39219;53.678;9.856;2023-05-11T08:11:53;76439.88;;;-147.77;85.40
52839;BME280;39219;53.678;9.856;2023-05-11T08:14:20;76433.78;;;-147.77;85.02
52839;BME280;39219;53.678;9.856;2023-05-11T08:16:48;76425.72;;;-147.77;85.42
52839;BME280;39219;53.678;9.856;2023-05-11T08:19:15;76411.53;;;-147.77;84.13
52839;BME280;39219;53.678;9.856;2023-05-11T08:21:41;76435.81;;;-147.77;84.00
52839;BME280;39219;53.678;9.856;2023-05-11T08:24:08;76425.72;;;-147.77;85.31
52839;BME280;39219;53.678;9.856;2023-05-11T08:26:35;76415.59;;;-147.77;85.24
52839;BME280;39219;53.678;9.856;2023-05-11T08:29:01;76415.59;;;-147.77;84.70
52839;BME280;39219;53.678;9.856;2023-05-11T08:31:28;76423.69;;;-147.77;84.40
52839;BME280;39219;53.678;9.856;2023-05-11T08:33:56;76415.59;;;-147.77;85.73
52839;BME280;39219;53.678;9.856;2023-05-11T08:36:23;76417.63;;;-147.77;85.21
52839;BME280;39219;53.678;9.856;2023-05-11T08:38:49;76405.47;;;-147.77;85.45
52839;BME280;39219;53.678;9.856;2023-05-11T08:41:16;76379.19;;;-147.77;85.14
52839;BME280;39219;53.678;9.856;2023-05-11T08:43:44;76381.19;;;-147.77;84.15
52839;BME280;39219;53.678;9.856;2023-05-11T08:46:13;76371.09;;;-147.77;83.93
52839;BME280;39219;53.678;9.856;2023-05-11T08:48:43;76354.91;;;-147.77;84.12
52839;BME280;39219;53.678;9.856;2023-05-11T08:51:11;76344.78;;;-147.77;83.39
52839;BME280;39219;53.678;9.856;2023-05-11T08:53:37;76338.72;;;-147.77;83.84
52839;BME280;39219;53.678;9.856;2023-05-11T08:56:06;76354.91;;;-147.77;83.32
52839;BME280;39219;53.678;9.856;2023-05-11T08:58:33;76350.88;;;-147.77;84.14
52839;BME280;39219;53.678;9.856;2023-05-11T09:01:02;76324.56;;;-147.77;84.23
52839;BME280;39219;53.678;9.856;2023-05-11T09:03:29;76334.69;;;-147.77;81.21
52839;BME280;39219;53.678;9.856;2023-05-11T09:05:56;76316.47;;;-147.77;82.27
52839;BME280;39219;53.678;9.856;2023-05-11T09:08:27;76332.66;;;-147.77;81.94
52839;BME280;39219;53.678;9.856;2023-05-11T09:10:55;76330.63;;;-147.77;83.29
52839;BME280;39219;53.678;9.856;2023-05-11T09:13:22;76322.53;;;-147.77;83.73
52839;BME280;39219;53.678;9.856;2023-05-11T09:15:50;76330.63;;;-147.77;82.84
52839;BME280;39219;53.678;9.856;2023-05-11T09:18:16;76354.91;;;-147.77;82.75
52839;BME280;39219;53.678;9.856;2023-05-11T09:20:43;76371.09;;;-147.77;83.17
52839;BME280;39219;53.678;9.856;2023-05-11T09:23:09;76360.97;;;-147.77;84.25
52839;BME280;39219;53.678;9.856;2023-05-11T09:25:37;76379.19;;;-147.77;84.75
52839;BME280;39219;53.678;9.856;2023-05-11T09:28:04;76403.44;;;-147.77;84.01
52839;BME280;39219;53.678;9.856;2023-05-11T09:30:32;76415.59;;;-147.77;86.33
52839;BME280;39219;53.678;9.856;2023-05-11T09:33:00;76405.47;;;-147.77;86.10
52839;BME280;39219;53.678;9.856;2023-05-11T09:35:28;76391.31;;;-147.77;86.41
52839;BME280;39219;53.678;9.856;2023-05-11T09:37:59;76387.28;;;-147.77;86.64
52839;BME280;39219;53.678;9.856;2023-05-11T09:40:27;76397.38;;;-147.77;86.31
52839;BME280;39219;53.678;9.856;2023-05-11T09:42:55;76391.31;;;-147.77;86.25
52839;BME280;39219;53.678;9.856;2023-05-11T09:45:35;76375.13;;;-147.77;87.03
52839;BME280;39219;53.678;9.856;2023-05-11T09:48:01;76387.28;;;-147.77;85.82
52839;BME280;39219;53.678;9.856;2023-05-11T09:50:31;76393.34;;;-147.77;86.54
52839;BME280;39219;53.678;9.856;2023-05-11T09:52:58;76395.38;;;-147.77;86.73
52839;BME280;39219;53.678;9.856;2023-05-11T09:55:24;76401.44;;;-147.77;87.53
52839;BME280;39219;53.678;9.856;2023-05-11T09:57:57;76395.38;;;-147.77;87.53
52839;BME280;39219;53.678;9.856;2023-05-11T10:00:24;76421.66;;;-147.77;86.87
52839;BME280;39219;53.678;9.856;2023-05-11T10:03:01;76427.72;;;-147.77;87.92
52839;BME280;39219;53.678;9.856;2023-05-11T10:05:29;76441.88;;;-147.77;87.56
52839;BME280;39219;53.678;9.856;2023-05-11T10:07:56;76445.94;;;-147.77;88.64
52839;BME280;39219;53.678;9.856;2023-05-11T10:10:25;76464.13;;;-147.77;88.78
52839;BME280;39219;53.678;9.856;2023-05-11T10:12:53;76474.25;;;-147.77;89.72
52839;BME280;39219;53.678;9.856;2023-05-11T10:15:22;76472.22;;;-147.77;90.90
52839;BME280;39219;53.678;9.856;2023-05-11T10:17:51;76456.06;;;-147.77;91.25
52839;BME280;39219;53.678;9.856;2023-05-11T10:20:19;76452.00;;;-147.77;91.43
52839;BME280;39219;53.678;9.856;2023-05-11T10:22:46;76443.91;;;-147.77;90.94
52839;BME280;39219;53.678;9.856;2023-05-11T10:25:13;76433.78;;;-147.77;91.36
52839;BME280;39219;53.678;9.856;2023-05-11T10:27:40;76409.53;;;-147.77;91.27
52839;BME280;39219;53.678;9.856;2023-05-11T10:30:09;76389.28;;;-147.77;90.91
52839;BME280;39219;53.678;9.856;2023-05-11T10:32:37;76397.38;;;-147.77;90.32
52839;BME280;39219;53.678;9.856;2023-05-11T10:35:06;76383.22;;;-147.77;90.58
52839;BME280;39219;53.678;9.856;2023-05-11T10:37:33;76377.16;;;-147.77;89.79
52839;BME280;39219;53.678;9.856;2023-05-11T10:40:00;76350.88;;;-147.77;90.21
52839;BME280;39219;53.678;9.856;2023-05-11T10:42:54;76286.13;;;-147.77;89.53
52839;BME280;39219;53.678;9.856;2023-05-11T10:45:28;76229.50;;;-147.77;86.99
52839;BME280;39219;53.678;9.856;2023-05-11T10:48:25;76160.72;;;-147.77;87.85
52839;BME280;39219;53.678;9.856;2023-05-11T10:51:11;76148.59;;;-147.77;85.08
52839;BME280;39219;53.678;9.856;2023-05-11T10:57:05;76164.78;;;-147.77;82.50
52839;BME280;39219;53.678;9.856;2023-05-11T11:00:11;76170.84;;;-147.77;81.67
52839;BME280;39219;53.678;9.856;2023-05-11T11:02:45;76152.63;;;-147.77;81.62
52839;BME280;39219;53.678;9.856;2023-05-11T11:05:13;76142.53;;;-147.77;81.39
52839;BME280;39219;53.678;9.856;2023-05-11T11:07:57;76120.28;;;-147.77;80.55
52839;BME280;39219;53.678;9.856;2023-05-11T11:10:32;76106.09;;;-147.77;79.75
52839;BME280;39219;53.678;9.856;2023-05-11T11:13:05;76096.00;;;-147.77;77.19
52839;BME280;39219;53.678;9.856;2023-05-11T11:16:08;76091.94;;;-147.77;77.34
52839;BME280;39219;53.678;9.856;2023-05-11T11:18:35;76059.59;;;-147.77;78.43
52839;BME280;39219;53.678;9.856;2023-05-11T11:21:03;76073.75;;;-147.77;75.94
52839;BME280;39219;53.678;9.856;2023-05-11T11:23:47;76126.34;;;-147.77;76.67
52839;BME280;39219;53.678;9.856;2023-05-11T11:26:16;76154.66;;;-147.77;77.70
52839;BME280;39219;53.678;9.856;2023-05-11T11:29:09;76185.00;;;-147.77;78.97
52839;BME280;39219;53.678;9.856;2023-05-11T11:31:36;76209.28;;;-147.77;79.30
52839;BME280;39219;53.678;9.856;2023-05-11T11:34:31;76213.31;;;-147.77;80.04
52839;BME280;39219;53.678;9.856;2023-05-11T11:37:03;76197.13;;;-147.77;79.17
52839;BME280;39219;53.678;9.856;2023-05-11T11:39:48;76182.97;;;-147.77;79.22
52839;BME280;39219;53.678;9.856;2023-05-11T11:42:16;76166.78;;;-147.77;77.76
52839;BME280;39219;53.678;9.856;2023-05-11T11:44:43;76142.53;;;-147.77;79.06
52839;BME280;39219;53.678;9.856;2023-05-11T11:47:12;76132.41;;;-147.77;78.24
52839;BME280;39219;53.678;9.856;2023-05-11T11:49:40;76150.59;;;-147.77;78.40
52839;BME280;39219;53.678;9.856;2023-05-11T11:52:11;76156.69;;;-147.77;79.06
52839;BME280;39219;53.678;9.856;2023-05-11T11:54:38;76122.28;;;-147.77;80.45
52839;BME280;39219;53.678;9.856;2023-05-11T11:57:42;76118.25;;;-147.77;77.05
52839;BME280;39219;53.678;9.856;2023-05-11T12:00:19;76128.34;;;-147.77;77.53
52839;BME280;39219;53.678;9.856;2023-05-11T12:02:46;76142.53;;;-147.77;77.07
52839;BME280;39219;53.678;9.856;2023-05-11T12:05:14;76142.53;;;-147.77;77.85
52839;BME280;39219;53.678;9.856;2023-05-11T12:07:43;76160.72;;;-147.77;77.97
52839;BME280;39219;53.678;9.856;2023-05-11T12:10:11;76178.94;;;-147.77;77.73
52839;BME280;39219;53.678;9.856;2023-05-11T12:12:38;76164.78;;;-147.77;78.43
52839;BME280;39219;53.678;9.856;2023-05-11T12:15:07;76124.31;;;-147.77;78.78
52839;BME280;39219;53.678;9.856;2023-05-11T12:17:37;76031.28;;;-147.77;78.56
52839;BME280;39219;53.678;9.856;2023-05-11T12:20:11;76000.94;;;-147.77;73.65
52839;BME280;39219;53.678;9.856;2023-05-11T12:22:38;75978.69;;;-147.77;73.85
52839;BME280;39219;53.678;9.856;2023-05-11T12:25:06;75976.66;;;-147.77;73.95
52839;BME280;39219;53.678;9.856;2023-05-11T12:27:33;75988.78;;;-147.77;74.93
52839;BME280;39219;53.678;9.856;2023-05-11T12:29:59;76009.03;;;-147.77;73.76
52839;BME280;39219;53.678;9.856;2023-05-11T12:32:28;76035.31;;;-147.77;73.65
52839;BME280;39219;53.678;9.856;2023-05-11T12:34:57;76025.22;;;-147.77;74.20
52839;BME280;39219;53.678;9.856;2023-05-11T12:37:23;76023.19;;;-147.77;72.21
52839;BME280;39219;53.678;9.856;2023-05-11T12:39:53;75990.81;;;-147.77;74.64
52839;BME280;39219;53.678;9.856;2023-05-11T12:42:19;75956.44;;;-147.77;73.64
52839;BME280;39219;53.678;9.856;2023-05-11T12:44:46;75984.75;;;-147.77;73.58
52839;BME280;39219;53.678;9.856;2023-05-11T12:47:13;75984.75;;;-147.77;73.57
52839;BME280;39219;53.678;9.856;2023-05-11T12:49:42;75988.78;;;-147.77;73.60
52839;BME280;39219;53.678;9.856;2023-05-11T12:52:09;75984.75;;;-147.77;73.67